createdAt,value
2022-10-20T00:00:47.845Z,4.10
2022-10-20T00:02:47.810Z,4.10
2022-10-20T00:03:47.746Z,4.40
2022-10-20T00:04:47.720Z,4.10
2022-10-20T00:05:47.702Z,4.30
2022-10-20T00:06:47.677Z,4.40
2022-10-20T00:07:47.662Z,4.60
2022-10-20T00:08:47.714Z,4.30
2022-10-20T00:09:47.613Z,4.50
2022-10-20T00:10:47.668Z,4.60
2022-10-20T00:11:47.573Z,4.70
2022-10-20T00:12:47.550Z,4.60
2022-10-20T00:13:47.527Z,4.30
2022-10-20T00:14:47.510Z,4.60
2022-10-20T00:15:47.487Z,4.40
2022-10-20T00:16:47.484Z,4.70
2022-10-20T00:17:47.442Z,4.20
2022-10-20T00:18:47.420Z,4.40
2022-10-20T00:19:47.399Z,4.40
2022-10-20T00:20:47.385Z,4.50
2022-10-20T00:21:47.363Z,4.60
2022-10-20T00:22:47.336Z,4.50
2022-10-20T00:23:47.311Z,4.60
2022-10-20T00:24:47.289Z,4.80
2022-10-20T00:25:47.273Z,4.40
2022-10-20T00:26:47.246Z,4.50
2022-10-20T00:27:47.227Z,4.40
2022-10-20T00:28:47.211Z,4.60
2022-10-20T00:29:47.188Z,4.90
2022-10-20T00:30:47.161Z,4.50
2022-10-20T00:31:47.155Z,5.00
2022-10-20T00:32:47.146Z,4.70
2022-10-20T00:33:47.102Z,4.40
2022-10-20T00:34:47.084Z,4.60
2022-10-20T00:35:47.057Z,4.60
2022-10-20T00:36:50.408Z,4.60
2022-10-20T00:37:47.017Z,4.80
2022-10-20T00:38:47.008Z,5.00
2022-10-20T00:39:46.973Z,4.90
2022-10-20T00:40:46.946Z,5.20
2022-10-20T00:41:46.931Z,4.80
2022-10-20T00:42:46.911Z,4.90
2022-10-20T00:43:46.885Z,5.10
2022-10-20T00:44:46.863Z,4.60
2022-10-20T00:45:46.847Z,5.60
2022-10-20T00:46:46.822Z,4.70
2022-10-20T00:47:46.814Z,5.20
2022-10-20T00:48:46.798Z,4.80
2022-10-20T00:49:46.758Z,4.90
2022-10-20T00:50:46.735Z,4.90
2022-10-20T00:51:46.722Z,4.90
2022-10-20T00:52:46.693Z,4.80
2022-10-20T00:53:46.674Z,5.20
2022-10-20T00:54:46.654Z,5.20
2022-10-20T00:55:46.626Z,5.20
2022-10-20T00:56:46.606Z,4.60
2022-10-20T00:57:46.590Z,5.00
2022-10-20T00:58:46.564Z,4.80
2022-10-20T00:59:46.546Z,5.20
2022-10-20T01:00:46.529Z,5.60
2022-10-20T01:01:46.586Z,5.40
2022-10-20T01:02:46.478Z,5.20
2022-10-20T01:03:46.463Z,4.70
2022-10-20T01:04:46.456Z,5.50
2022-10-20T01:05:46.422Z,5.30
2022-10-20T01:06:46.395Z,5.50
2022-10-20T01:07:46.372Z,5.50
2022-10-20T01:08:46.426Z,5.40
2022-10-20T01:09:46.327Z,5.60
2022-10-20T01:10:46.308Z,5.60
2022-10-20T01:11:46.287Z,5.30
2022-10-20T01:12:46.264Z,5.40
2022-10-20T01:13:46.242Z,5.70
2022-10-20T01:14:46.223Z,5.40
2022-10-20T01:15:46.206Z,5.50
2022-10-20T01:16:46.182Z,5.90
2022-10-20T01:17:46.162Z,5.30
2022-10-20T01:18:46.139Z,5.70
2022-10-20T01:19:46.117Z,5.60
2022-10-20T01:20:46.119Z,5.80
2022-10-20T01:21:46.072Z,5.40
2022-10-20T01:22:46.054Z,5.20
2022-10-20T01:23:46.035Z,5.50
2022-10-20T01:24:46.010Z,5.90
2022-10-20T01:25:45.991Z,5.70
2022-10-20T01:26:45.962Z,6.00
2022-10-20T01:27:45.942Z,5.70
2022-10-20T01:28:45.922Z,6.30
2022-10-20T01:29:45.902Z,6.50
2022-10-20T01:30:45.880Z,5.90
2022-10-20T01:31:45.860Z,5.90
2022-10-20T01:32:45.834Z,5.90
2022-10-20T01:33:45.813Z,5.70
2022-10-20T01:34:48.022Z,6.20
2022-10-20T01:35:45.771Z,5.80
2022-10-20T01:36:45.773Z,5.80
2022-10-20T01:37:49.553Z,5.80
2022-10-20T01:38:45.713Z,5.70
2022-10-20T01:39:45.694Z,5.80
2022-10-20T01:40:45.670Z,6.30
2022-10-20T01:41:45.648Z,6.10
2022-10-20T01:42:45.624Z,6.40
2022-10-20T01:43:45.605Z,6.20
2022-10-20T01:44:45.576Z,6.20
2022-10-20T01:45:45.554Z,6.10
2022-10-20T01:46:45.537Z,6.30
2022-10-20T01:47:45.518Z,6.10
2022-10-20T01:48:45.492Z,6.70
2022-10-20T01:49:45.478Z,6.30
2022-10-20T01:50:45.454Z,6.50
2022-10-20T01:51:45.439Z,6.00
2022-10-20T01:52:45.431Z,6.40
2022-10-20T01:53:45.386Z,6.20
2022-10-20T01:54:45.366Z,6.40
2022-10-20T01:55:45.342Z,6.30
2022-10-20T01:56:45.330Z,6.80
2022-10-20T01:57:45.299Z,6.10
2022-10-20T01:58:45.280Z,6.60
2022-10-20T01:59:45.255Z,6.60
2022-10-20T02:00:45.387Z,6.30
2022-10-20T02:01:45.278Z,6.70
2022-10-20T02:02:45.197Z,6.20
2022-10-20T02:03:45.176Z,6.80
2022-10-20T02:04:45.154Z,6.80
2022-10-20T02:05:45.132Z,6.50
2022-10-20T02:06:45.113Z,7.10
2022-10-20T02:07:45.087Z,6.90
2022-10-20T02:08:45.131Z,7.00
2022-10-20T02:09:45.131Z,6.90
2022-10-20T02:10:45.022Z,7.00
2022-10-20T02:11:45.000Z,6.80
2022-10-20T02:12:44.986Z,6.60
2022-10-20T02:13:44.955Z,6.80
2022-10-20T02:14:44.938Z,6.60
2022-10-20T02:15:44.916Z,7.00
2022-10-20T02:16:44.895Z,7.10
2022-10-20T02:17:44.876Z,7.40
2022-10-20T02:18:44.852Z,7.20
2022-10-20T02:19:44.828Z,6.60
2022-10-20T02:20:44.814Z,6.90
2022-10-20T02:21:44.786Z,7.30
2022-10-20T02:22:44.766Z,7.30
2022-10-20T02:23:44.745Z,7.30
2022-10-20T02:24:44.743Z,6.80
2022-10-20T02:25:44.703Z,7.80
2022-10-20T02:26:44.677Z,6.70
2022-10-20T02:27:44.659Z,7.40
2022-10-20T02:28:44.640Z,7.00
2022-10-20T02:29:44.618Z,7.30
2022-10-20T02:30:44.598Z,8.20
2022-10-20T02:31:44.575Z,7.20
2022-10-20T02:32:44.561Z,7.60
2022-10-20T02:33:44.533Z,7.90
2022-10-20T02:34:44.517Z,7.50
2022-10-20T02:35:44.486Z,7.70
2022-10-20T02:36:44.468Z,7.80
2022-10-20T02:37:44.446Z,8.40
2022-10-20T02:38:44.425Z,8.00
2022-10-20T02:39:44.403Z,8.20
2022-10-20T02:40:44.403Z,8.40
2022-10-20T02:41:44.364Z,8.00
2022-10-20T02:42:44.337Z,8.40
2022-10-20T02:43:44.314Z,8.20
2022-10-20T02:44:44.296Z,8.60
2022-10-20T02:45:44.279Z,8.30
2022-10-20T02:46:44.251Z,8.20
2022-10-20T02:47:44.231Z,8.50
2022-10-20T02:48:44.211Z,8.80
2022-10-20T02:49:44.188Z,8.60
2022-10-20T02:50:44.171Z,8.50
2022-10-20T02:51:44.148Z,8.60
2022-10-20T02:52:44.127Z,8.50
2022-10-20T02:53:44.103Z,8.90
2022-10-20T02:54:44.076Z,8.70
2022-10-20T02:55:44.062Z,8.90
2022-10-20T02:56:44.057Z,9.50
2022-10-20T02:57:44.022Z,8.80
2022-10-20T02:58:43.994Z,9.30
2022-10-20T02:59:43.978Z,9.60
2022-10-20T03:00:43.948Z,9.50
2022-10-20T03:01:43.980Z,9.20
2022-10-20T03:02:43.910Z,9.20
2022-10-20T03:03:43.887Z,9.40
2022-10-20T03:04:43.866Z,9.60
2022-10-20T03:05:43.845Z,9.90
2022-10-20T03:06:43.831Z,9.60
2022-10-20T03:07:43.803Z,10.20
2022-10-20T03:08:43.831Z,9.70
2022-10-20T03:09:43.757Z,9.40
2022-10-20T03:10:43.741Z,9.60
2022-10-20T03:11:43.713Z,10.40
2022-10-20T03:12:43.717Z,9.80
2022-10-20T03:13:43.674Z,9.80
2022-10-20T03:14:43.649Z,10.20
2022-10-20T03:15:43.638Z,10.40
2022-10-20T03:16:43.603Z,9.90
2022-10-20T03:17:43.591Z,10.20
2022-10-20T03:18:43.569Z,10.00
2022-10-20T03:19:43.542Z,10.60
2022-10-20T03:20:43.516Z,9.80
2022-10-20T03:21:43.498Z,10.60
2022-10-20T03:22:43.478Z,10.40
2022-10-20T03:23:43.456Z,10.40
2022-10-20T03:24:43.438Z,11.00
2022-10-20T03:25:43.417Z,10.60
2022-10-20T03:26:43.388Z,11.00
2022-10-20T03:27:43.372Z,10.70
2022-10-20T03:28:43.380Z,10.80
2022-10-20T03:29:43.328Z,11.00
2022-10-20T03:30:43.302Z,10.50
2022-10-20T03:31:43.369Z,10.70
2022-10-20T03:32:43.264Z,10.70
2022-10-20T03:33:43.244Z,11.10
2022-10-20T03:34:43.219Z,11.20
2022-10-20T03:35:43.194Z,10.90
2022-10-20T03:36:43.174Z,11.40
2022-10-20T03:37:43.153Z,11.30
2022-10-20T03:38:43.133Z,10.60
2022-10-20T03:39:43.116Z,11.10
2022-10-20T03:40:43.087Z,11.50
2022-10-20T03:41:43.068Z,11.70
2022-10-20T03:42:43.046Z,12.00
2022-10-20T03:43:43.023Z,11.80
2022-10-20T03:44:43.019Z,10.90
2022-10-20T03:45:42.981Z,10.80
2022-10-20T03:46:42.961Z,11.00
2022-10-20T03:47:42.936Z,10.90
2022-10-20T03:48:42.917Z,11.20
2022-10-20T03:49:42.896Z,10.50
2022-10-20T03:50:42.876Z,11.00
2022-10-20T03:51:42.851Z,11.30
2022-10-20T03:52:42.828Z,11.50
2022-10-20T03:53:42.806Z,11.20
2022-10-20T03:54:42.786Z,11.40
2022-10-20T03:55:42.763Z,11.40
2022-10-20T03:56:42.739Z,10.70
2022-10-20T03:57:42.725Z,11.20
2022-10-20T03:58:42.702Z,11.30
2022-10-20T03:59:42.676Z,10.30
2022-10-20T04:00:42.674Z,11.20
2022-10-20T04:01:42.740Z,10.60
2022-10-20T04:02:42.613Z,11.10
2022-10-20T04:03:42.589Z,11.20
2022-10-20T04:04:42.572Z,10.50
2022-10-20T04:05:42.550Z,10.60
2022-10-20T04:06:42.532Z,11.60
2022-10-20T04:07:42.513Z,11.00
2022-10-20T04:08:42.590Z,11.50
2022-10-20T04:09:42.464Z,11.80
2022-10-20T04:10:42.442Z,11.40
2022-10-20T04:11:42.417Z,11.10
2022-10-20T04:12:42.402Z,10.90
2022-10-20T04:13:42.376Z,10.90
2022-10-20T04:14:42.354Z,11.40
2022-10-20T04:15:42.330Z,11.50
2022-10-20T04:16:42.332Z,11.70
2022-10-20T04:17:42.293Z,11.70
2022-10-20T04:18:42.271Z,12.20
2022-10-20T04:19:42.248Z,11.60
2022-10-20T04:20:44.435Z,11.40
2022-10-20T04:21:42.206Z,11.30
2022-10-20T04:22:42.184Z,11.50
2022-10-20T04:23:42.161Z,11.90
2022-10-20T04:24:42.140Z,11.10
2022-10-20T04:25:42.121Z,12.20
2022-10-20T04:26:42.123Z,11.20
2022-10-20T04:27:42.076Z,11.90
2022-10-20T04:28:42.055Z,11.90
2022-10-20T04:29:42.032Z,12.40
2022-10-20T04:30:42.014Z,12.00
2022-10-20T04:31:45.379Z,11.90
2022-10-20T04:32:41.985Z,12.50
2022-10-20T04:33:41.950Z,11.40
2022-10-20T04:34:41.922Z,12.20
2022-10-20T04:35:41.942Z,12.30
2022-10-20T04:36:41.888Z,12.40
2022-10-20T04:37:41.856Z,12.20
2022-10-20T04:38:41.839Z,12.10
2022-10-20T04:39:41.816Z,12.70
2022-10-20T04:40:41.794Z,12.10
2022-10-20T04:41:41.774Z,12.50
2022-10-20T04:42:41.750Z,11.90
2022-10-20T04:43:41.729Z,12.10
2022-10-20T04:44:41.714Z,12.20
2022-10-20T04:45:41.686Z,12.30
2022-10-20T04:46:41.670Z,12.90
2022-10-20T04:47:41.643Z,11.90
2022-10-20T04:48:41.644Z,12.00
2022-10-20T04:49:41.603Z,12.50
2022-10-20T04:50:41.581Z,12.00
2022-10-20T04:51:41.560Z,12.20
2022-10-20T04:52:41.541Z,11.60
2022-10-20T04:53:41.520Z,11.40
2022-10-20T04:54:41.490Z,12.00
2022-10-20T04:55:41.471Z,12.30
2022-10-20T04:56:41.448Z,12.40
2022-10-20T04:57:41.429Z,12.20
2022-10-20T04:58:41.407Z,11.80
2022-10-20T04:59:41.381Z,11.80
2022-10-20T05:00:41.360Z,12.30
2022-10-20T05:01:41.405Z,11.70
2022-10-20T05:02:41.315Z,12.70
2022-10-20T05:03:41.299Z,11.90
2022-10-20T05:04:41.293Z,11.80
2022-10-20T05:05:41.258Z,11.90
2022-10-20T05:06:41.234Z,13.20
2022-10-20T05:07:41.210Z,12.30
2022-10-20T05:08:41.240Z,12.00
2022-10-20T05:09:41.168Z,12.80
2022-10-20T05:10:41.145Z,11.80
2022-10-20T05:11:41.119Z,12.00
2022-10-20T05:12:41.099Z,11.60
2022-10-20T05:13:41.083Z,11.90
2022-10-20T05:14:41.058Z,11.90
2022-10-20T05:15:41.037Z,11.80
2022-10-20T05:16:41.017Z,11.20
2022-10-20T05:17:40.993Z,11.70
2022-10-20T05:18:40.974Z,11.30
2022-10-20T05:19:40.950Z,11.40
2022-10-20T05:20:57.187Z,11.40
2022-10-20T05:22:40.887Z,11.50
2022-10-20T05:23:40.864Z,11.40
2022-10-20T05:24:40.847Z,12.20
2022-10-20T05:25:40.825Z,11.70
2022-10-20T05:26:40.800Z,12.30
2022-10-20T05:27:40.780Z,12.60
2022-10-20T05:28:40.755Z,16.00
2022-10-20T05:29:40.734Z,12.60
2022-10-20T05:31:40.692Z,12.20
2022-10-20T05:32:40.675Z,11.90
2022-10-20T05:33:40.655Z,12.00
2022-10-20T05:34:40.633Z,11.50
2022-10-20T05:35:40.612Z,11.50
2022-10-20T05:36:40.603Z,12.40
2022-10-20T05:37:40.564Z,11.70
2022-10-20T05:38:40.543Z,11.80
2022-10-20T05:39:40.572Z,12.10
2022-10-20T05:40:40.502Z,11.60
2022-10-20T05:41:40.498Z,11.80
2022-10-20T05:42:40.459Z,11.50
2022-10-20T05:43:40.437Z,11.60
2022-10-20T05:44:40.417Z,11.40
2022-10-20T05:45:40.392Z,11.50
2022-10-20T05:46:40.370Z,11.40
2022-10-20T05:47:40.348Z,11.90
2022-10-20T05:48:43.047Z,11.30
2022-10-20T05:49:40.303Z,11.90
2022-10-20T05:50:40.336Z,11.70
2022-10-20T05:51:40.258Z,11.60
2022-10-20T05:52:40.258Z,11.60
2022-10-20T05:53:40.217Z,11.20
2022-10-20T05:54:40.197Z,11.60
2022-10-20T05:55:40.175Z,11.90
2022-10-20T05:56:40.149Z,11.50
2022-10-20T05:57:40.129Z,11.80
2022-10-20T05:58:40.110Z,11.80
2022-10-20T05:59:40.094Z,10.90
2022-10-20T06:00:40.071Z,11.30
2022-10-20T06:01:40.074Z,11.70
2022-10-20T06:02:40.079Z,11.20
2022-10-20T06:03:40.003Z,11.00
2022-10-20T06:04:39.979Z,11.10
2022-10-20T06:05:39.963Z,11.30
2022-10-20T06:06:39.936Z,11.00
2022-10-20T06:07:39.927Z,11.20
2022-10-20T06:08:39.955Z,11.30
2022-10-20T06:09:39.878Z,10.90
2022-10-20T06:10:39.853Z,10.80
2022-10-20T06:11:39.969Z,10.70
2022-10-20T06:12:39.833Z,12.20
2022-10-20T06:13:39.789Z,11.40
2022-10-20T06:14:39.763Z,11.00
2022-10-20T06:15:39.745Z,10.50
2022-10-20T06:16:39.722Z,11.10
2022-10-20T06:17:39.719Z,11.30
2022-10-20T06:18:39.679Z,10.70
2022-10-20T06:19:39.661Z,11.10
2022-10-20T06:20:39.636Z,10.80
2022-10-20T06:21:39.728Z,10.60
2022-10-20T06:22:39.890Z,10.80
2022-10-20T06:23:39.569Z,10.60
2022-10-20T06:24:39.571Z,10.60
2022-10-20T06:25:39.528Z,10.90
2022-10-20T06:26:39.508Z,10.50
2022-10-20T06:27:39.482Z,10.20
2022-10-20T06:28:39.461Z,10.70
2022-10-20T06:29:39.441Z,10.80
2022-10-20T06:30:39.423Z,10.70
2022-10-20T06:31:39.400Z,10.00
2022-10-20T06:32:39.546Z,10.70
2022-10-20T06:33:39.362Z,10.40
2022-10-20T06:34:39.335Z,10.70
2022-10-20T06:35:39.317Z,10.00
2022-10-20T06:36:39.290Z,10.10
2022-10-20T06:37:39.271Z,10.30
2022-10-20T06:38:39.255Z,10.20
2022-10-20T06:39:39.230Z,10.20
2022-10-20T06:40:39.232Z,9.60
2022-10-20T06:41:39.192Z,9.80
2022-10-20T06:42:39.489Z,10.30
2022-10-20T06:43:39.146Z,9.20
2022-10-20T06:44:39.126Z,9.90
2022-10-20T06:45:39.100Z,9.80
2022-10-20T06:46:39.081Z,9.40
2022-10-20T06:47:39.528Z,9.30
2022-10-20T06:48:39.039Z,10.00
2022-10-20T06:49:39.027Z,9.60
2022-10-20T06:50:38.994Z,9.20
2022-10-20T06:51:38.971Z,9.60
2022-10-20T06:52:39.294Z,9.50
2022-10-20T06:53:42.685Z,9.00
2022-10-20T06:54:38.914Z,9.10
2022-10-20T06:55:38.892Z,9.90
2022-10-20T06:56:38.890Z,9.00
2022-10-20T06:57:38.845Z,9.60
2022-10-20T06:58:38.833Z,8.80
2022-10-20T06:59:38.806Z,9.40
2022-10-20T07:00:38.793Z,9.30
2022-10-20T07:01:38.829Z,9.40
2022-10-20T07:02:39.081Z,9.10
2022-10-20T07:03:38.724Z,9.70
2022-10-20T07:04:38.699Z,9.30
2022-10-20T07:05:38.677Z,9.40
2022-10-20T07:06:38.660Z,9.30
2022-10-20T07:07:38.636Z,9.10
2022-10-20T07:08:38.636Z,8.80
2022-10-20T07:09:38.595Z,10.00
2022-10-20T07:10:38.571Z,9.40
2022-10-20T07:11:38.560Z,9.80
2022-10-20T07:12:38.868Z,9.60
2022-10-20T07:13:38.507Z,9.20
2022-10-20T07:14:38.496Z,9.40
2022-10-20T07:15:38.466Z,9.50
2022-10-20T07:16:38.446Z,9.00
2022-10-20T07:17:38.426Z,9.10
2022-10-20T07:18:38.469Z,9.00
2022-10-20T07:19:38.386Z,9.10
2022-10-20T07:20:38.370Z,9.20
2022-10-20T07:21:41.610Z,9.20
2022-10-20T07:22:38.955Z,9.30
2022-10-20T07:23:38.299Z,8.90
2022-10-20T07:24:38.283Z,8.80
2022-10-20T07:25:38.265Z,9.30
2022-10-20T07:26:38.237Z,9.20
2022-10-20T07:27:38.218Z,9.20
2022-10-20T07:28:38.231Z,9.10
2022-10-20T07:29:38.174Z,9.30
2022-10-20T07:30:38.150Z,9.80
2022-10-20T07:31:38.142Z,10.00
2022-10-20T07:32:38.546Z,9.90
2022-10-20T07:33:38.113Z,8.60
2022-10-20T07:34:38.076Z,9.70
2022-10-20T07:35:38.050Z,9.90
2022-10-20T07:36:38.027Z,9.20
2022-10-20T07:37:38.501Z,9.40
2022-10-20T07:38:37.988Z,9.30
2022-10-20T07:39:37.965Z,9.50
2022-10-20T07:40:37.942Z,9.30
2022-10-20T07:41:37.923Z,9.40
2022-10-20T07:42:38.390Z,9.20
2022-10-20T07:43:37.883Z,9.50
2022-10-20T07:44:37.885Z,9.30
2022-10-20T07:45:37.843Z,9.30
2022-10-20T07:46:37.855Z,9.20
2022-10-20T07:47:38.293Z,9.50
2022-10-20T07:48:37.777Z,9.20
2022-10-20T07:49:45.346Z,9.20
2022-10-20T07:50:37.740Z,9.10
2022-10-20T07:51:37.736Z,9.10
2022-10-20T07:52:38.054Z,8.50
2022-10-20T07:53:37.678Z,9.20
2022-10-20T07:54:37.659Z,8.90
2022-10-20T07:55:38.955Z,9.80
2022-10-20T07:56:37.615Z,9.60
2022-10-20T07:57:37.598Z,8.90
2022-10-20T07:58:37.601Z,9.20
2022-10-20T07:59:37.552Z,9.10
2022-10-20T08:00:37.557Z,8.90
2022-10-20T08:01:37.568Z,9.00
2022-10-20T08:02:37.872Z,8.50
2022-10-20T08:03:37.478Z,9.40
2022-10-20T08:04:37.473Z,9.10
2022-10-20T08:05:37.438Z,9.00
2022-10-20T08:06:39.082Z,9.10
2022-10-20T08:07:37.414Z,9.50
2022-10-20T08:08:37.422Z,9.10
2022-10-20T08:09:37.398Z,8.50
2022-10-20T08:10:37.344Z,9.10
2022-10-20T08:11:37.313Z,8.60
2022-10-20T08:12:37.833Z,8.50
2022-10-20T08:13:37.288Z,9.10
2022-10-20T08:14:37.250Z,9.10
2022-10-20T08:15:37.240Z,8.70
2022-10-20T08:16:37.559Z,8.50
2022-10-20T08:17:37.599Z,9.20
2022-10-20T08:18:37.403Z,8.80
2022-10-20T08:19:37.168Z,9.10
2022-10-20T08:20:37.688Z,8.70
2022-10-20T08:21:37.107Z,9.50
2022-10-20T08:22:37.448Z,9.20
2022-10-20T08:23:37.094Z,8.90
2022-10-20T08:24:37.038Z,9.10
2022-10-20T08:25:37.033Z,8.60
2022-10-20T08:26:37.010Z,8.10
2022-10-20T08:27:36.981Z,8.10
2022-10-20T08:28:36.968Z,9.10
2022-10-20T08:29:36.939Z,8.50
2022-10-20T08:30:36.926Z,7.40
2022-10-20T08:31:36.904Z,7.70
2022-10-20T08:32:37.343Z,7.80
2022-10-20T08:33:36.889Z,8.00
2022-10-20T08:34:36.847Z,8.50
2022-10-20T08:35:36.827Z,7.00
2022-10-20T08:36:36.819Z,7.40
2022-10-20T08:37:37.179Z,8.00
2022-10-20T08:38:36.773Z,8.00
2022-10-20T08:39:36.751Z,8.10
2022-10-20T08:40:36.733Z,8.00
2022-10-20T08:41:55.382Z,7.80
2022-10-20T08:42:36.701Z,7.80
2022-10-20T08:43:36.671Z,7.90
2022-10-20T08:44:36.659Z,8.30
2022-10-20T08:45:38.544Z,8.10
2022-10-20T08:46:36.618Z,7.50
2022-10-20T08:47:37.010Z,7.70
2022-10-20T08:48:36.583Z,7.80
2022-10-20T08:49:36.585Z,8.10
2022-10-20T08:50:36.550Z,8.10
2022-10-20T08:51:36.535Z,7.90
2022-10-20T08:52:36.505Z,7.90
2022-10-20T08:53:36.493Z,7.50
2022-10-20T08:54:36.505Z,7.80
2022-10-20T08:55:36.460Z,7.90
2022-10-20T08:56:36.439Z,7.30
2022-10-20T08:57:36.874Z,7.90
2022-10-20T08:58:36.405Z,7.90
2022-10-20T08:59:39.220Z,7.00
2022-10-20T09:00:36.366Z,7.40
2022-10-20T09:01:36.396Z,7.30
2022-10-20T09:02:36.337Z,7.50
2022-10-20T09:03:36.320Z,7.80
2022-10-20T09:04:36.344Z,7.40
2022-10-20T09:05:36.312Z,7.70
2022-10-20T09:06:36.278Z,7.50
2022-10-20T09:07:36.621Z,6.80
2022-10-20T09:08:36.287Z,7.50
2022-10-20T09:09:36.228Z,6.70
2022-10-20T09:10:36.208Z,7.80
2022-10-20T09:11:36.196Z,6.90
2022-10-20T09:12:36.180Z,7.20
2022-10-20T09:13:36.215Z,7.40
2022-10-20T09:14:36.150Z,7.30
2022-10-20T09:15:36.136Z,7.90
2022-10-20T09:16:42.179Z,7.30
2022-10-20T09:17:36.361Z,7.80
2022-10-20T09:18:36.094Z,7.60
2022-10-20T09:19:36.075Z,7.60
2022-10-20T09:20:36.082Z,7.20
2022-10-20T09:21:36.065Z,7.50
2022-10-20T09:22:36.322Z,7.40
2022-10-20T09:23:41.121Z,7.10
2022-10-20T09:24:35.998Z,7.40
2022-10-20T09:25:35.985Z,7.50
2022-10-20T09:26:54.671Z,7.10
2022-10-20T09:27:36.338Z,7.60
2022-10-20T09:28:55.382Z,7.80
2022-10-20T09:29:35.913Z,7.00
2022-10-20T09:30:35.902Z,6.90
2022-10-20T09:31:35.885Z,8.00
2022-10-20T09:32:51.393Z,7.40
2022-10-20T09:33:35.850Z,7.40
2022-10-20T09:34:35.832Z,7.70
2022-10-20T09:35:35.815Z,7.30
2022-10-20T09:36:35.801Z,7.70
2022-10-20T09:37:35.801Z,7.90
2022-10-20T09:38:35.769Z,7.70
2022-10-20T09:39:37.458Z,7.70
2022-10-20T09:40:35.730Z,7.80
2022-10-20T09:41:35.718Z,7.70
2022-10-20T09:42:36.005Z,7.70
2022-10-20T09:43:35.680Z,7.90
2022-10-20T09:44:35.678Z,8.00
2022-10-20T09:45:35.643Z,7.60
2022-10-20T09:46:35.635Z,7.80
2022-10-20T09:47:35.610Z,7.50
2022-10-20T09:48:35.594Z,7.70
2022-10-20T09:49:35.580Z,8.00
2022-10-20T09:50:35.565Z,7.90
2022-10-20T09:51:35.547Z,8.20
2022-10-20T09:52:36.092Z,7.60
2022-10-20T09:53:35.534Z,7.70
2022-10-20T09:54:35.499Z,8.10
2022-10-20T09:55:35.481Z,7.70
2022-10-20T09:56:35.468Z,7.80
2022-10-20T09:57:35.455Z,7.90
2022-10-20T09:58:35.429Z,8.20
2022-10-20T09:59:35.421Z,7.70
2022-10-20T10:00:37.828Z,8.30
2022-10-20T10:01:35.379Z,7.60
2022-10-20T10:02:35.745Z,7.90
2022-10-20T10:03:35.346Z,8.50
2022-10-20T10:04:35.338Z,8.70
2022-10-20T10:05:35.311Z,8.80
2022-10-20T10:06:35.305Z,8.80
2022-10-20T10:07:35.279Z,8.60
2022-10-20T10:08:35.299Z,9.10
2022-10-20T10:09:35.290Z,9.00
2022-10-20T10:10:35.233Z,9.10
2022-10-20T10:11:35.216Z,8.90
2022-10-20T10:12:35.553Z,9.50
2022-10-20T10:13:35.184Z,8.50
2022-10-20T10:14:35.164Z,8.50
2022-10-20T10:15:35.149Z,9.00
2022-10-20T10:16:35.133Z,8.80
2022-10-20T10:17:35.540Z,8.00
2022-10-20T10:18:35.099Z,8.40
2022-10-20T10:19:35.083Z,9.00
2022-10-20T10:20:35.071Z,8.40
2022-10-20T10:21:35.059Z,8.40
2022-10-20T10:22:35.370Z,9.30
2022-10-20T10:23:35.022Z,8.60
2022-10-20T10:24:34.995Z,8.90
2022-10-20T10:25:35.001Z,8.50
2022-10-20T10:26:34.966Z,8.30
2022-10-20T10:27:34.950Z,8.80
2022-10-20T10:28:34.926Z,9.10
2022-10-20T10:29:34.913Z,9.00
2022-10-20T10:30:34.896Z,8.80
2022-10-20T10:31:34.883Z,8.50
2022-10-20T10:32:35.280Z,9.20
2022-10-20T10:33:34.843Z,9.00
2022-10-20T10:34:34.825Z,9.20
2022-10-20T10:35:34.806Z,8.50
2022-10-20T10:36:34.790Z,8.80
2022-10-20T10:37:35.273Z,9.40
2022-10-20T10:38:34.759Z,8.80
2022-10-20T10:39:34.739Z,9.00
2022-10-20T10:40:34.728Z,9.30
2022-10-20T10:41:34.724Z,9.10
2022-10-20T10:42:34.907Z,8.80
2022-10-20T10:43:34.670Z,8.60
2022-10-20T10:44:34.649Z,9.90
2022-10-20T10:45:34.650Z,10.10
2022-10-20T10:46:34.649Z,8.80
2022-10-20T10:47:37.803Z,9.50
2022-10-20T10:48:34.582Z,8.80
2022-10-20T10:49:34.567Z,9.40
2022-10-20T10:50:34.546Z,8.90
2022-10-20T10:51:34.527Z,8.90
2022-10-20T10:52:34.508Z,9.80
2022-10-20T10:53:34.494Z,9.70
2022-10-20T10:54:34.483Z,10.40
2022-10-20T10:55:48.358Z,9.20
2022-10-20T10:56:34.464Z,9.80
2022-10-20T10:57:34.765Z,9.50
2022-10-20T10:58:34.408Z,9.10
2022-10-20T10:59:34.394Z,9.80
2022-10-20T11:00:34.409Z,9.60
2022-10-20T11:01:34.351Z,9.40
2022-10-20T11:02:34.718Z,9.50
2022-10-20T11:03:37.644Z,8.60
2022-10-20T11:04:34.305Z,8.80
2022-10-20T11:05:34.282Z,10.00
2022-10-20T11:06:34.266Z,9.30
2022-10-20T11:07:34.626Z,8.70
2022-10-20T11:08:34.306Z,8.80
2022-10-20T11:09:34.213Z,9.20
2022-10-20T11:10:34.199Z,8.80
2022-10-20T11:11:34.178Z,9.30
2022-10-20T11:12:34.158Z,9.00
2022-10-20T11:13:34.162Z,9.60
2022-10-20T11:14:34.127Z,8.90
2022-10-20T11:15:34.107Z,9.70
2022-10-20T11:16:34.087Z,8.90
2022-10-20T11:17:34.304Z,8.80
2022-10-20T11:18:34.054Z,9.00
2022-10-20T11:19:34.037Z,8.80
2022-10-20T11:20:34.018Z,8.90
2022-10-20T11:21:34.008Z,8.80
2022-10-20T11:22:33.993Z,9.30
2022-10-20T11:24:33.948Z,10.20
2022-10-20T11:25:33.944Z,9.50
2022-10-20T11:26:33.911Z,9.70
2022-10-20T11:27:34.181Z,9.20
2022-10-20T11:28:33.880Z,9.70
2022-10-20T11:29:33.889Z,9.50
2022-10-20T11:30:33.840Z,9.40
2022-10-20T11:31:33.823Z,9.10
2022-10-20T11:32:33.807Z,10.70
2022-10-20T11:33:35.731Z,10.10
2022-10-20T11:34:33.772Z,9.50
2022-10-20T11:35:33.762Z,10.30
2022-10-20T11:36:33.746Z,9.30
2022-10-20T11:37:33.963Z,9.20
2022-10-20T11:38:33.706Z,9.60
2022-10-20T11:39:33.697Z,9.40
2022-10-20T11:40:33.675Z,9.30
2022-10-20T11:41:33.727Z,9.60
2022-10-20T11:42:33.925Z,8.40
2022-10-20T11:43:33.621Z,10.00
2022-10-20T11:44:33.605Z,9.70
2022-10-20T11:45:33.601Z,9.90
2022-10-20T11:46:33.562Z,9.60
2022-10-20T11:47:33.544Z,9.10
2022-10-20T11:48:33.536Z,9.20
2022-10-20T11:49:33.512Z,9.10
2022-10-20T11:50:33.499Z,9.60
2022-10-20T11:51:33.478Z,9.30
2022-10-20T11:52:33.549Z,9.50
2022-10-20T11:53:33.445Z,10.10
2022-10-20T11:54:33.427Z,10.50
2022-10-20T11:55:33.404Z,9.90
2022-10-20T11:56:33.400Z,10.10
2022-10-20T11:57:33.369Z,9.90
2022-10-20T11:58:33.348Z,9.70
2022-10-20T11:59:33.329Z,10.10
2022-10-20T12:00:33.327Z,9.90
2022-10-20T12:01:33.423Z,9.70
2022-10-20T12:02:33.464Z,9.00
2022-10-20T12:03:33.264Z,10.40
2022-10-20T12:04:33.243Z,9.50
2022-10-20T12:05:33.233Z,9.60
2022-10-20T12:06:33.223Z,9.70
2022-10-20T12:07:33.186Z,9.10
2022-10-20T12:08:33.261Z,10.10
2022-10-20T12:09:33.204Z,9.00
2022-10-20T12:10:33.135Z,9.20
2022-10-20T12:11:33.123Z,9.80
2022-10-20T12:12:33.240Z,8.70
2022-10-20T12:13:33.096Z,9.60
2022-10-20T12:14:33.071Z,9.20
2022-10-20T12:15:33.049Z,10.40
2022-10-20T12:16:33.036Z,9.80
2022-10-20T12:17:33.036Z,10.10
2022-10-20T12:18:32.998Z,9.70
2022-10-20T12:19:32.978Z,9.70
2022-10-20T12:20:32.963Z,9.60
2022-10-20T12:21:34.469Z,9.70
2022-10-20T12:22:32.927Z,9.90
2022-10-20T12:23:32.909Z,9.40
2022-10-20T12:24:32.938Z,9.60
2022-10-20T12:25:32.882Z,9.70
2022-10-20T12:26:32.858Z,9.40
2022-10-20T12:27:32.840Z,10.00
2022-10-20T12:28:32.862Z,10.40
2022-10-20T12:29:32.801Z,10.30
2022-10-20T12:30:32.787Z,10.20
2022-10-20T12:31:32.775Z,9.90
2022-10-20T12:32:32.766Z,10.10
2022-10-20T12:33:32.782Z,10.30
2022-10-20T12:34:32.717Z,10.50
2022-10-20T12:35:32.705Z,9.70
2022-10-20T12:36:32.682Z,10.50
2022-10-20T12:37:32.664Z,10.10
2022-10-20T12:38:32.647Z,10.40
2022-10-20T12:39:32.631Z,10.70
2022-10-20T12:40:32.649Z,9.50
2022-10-20T12:41:32.590Z,10.90
2022-10-20T12:42:32.595Z,9.90
2022-10-20T12:43:32.554Z,9.70
2022-10-20T12:44:32.542Z,10.80
2022-10-20T12:45:32.520Z,10.10
2022-10-20T12:46:32.507Z,10.90
2022-10-20T12:47:32.497Z,10.70
2022-10-20T12:48:32.472Z,11.10
2022-10-20T12:49:32.475Z,11.80
2022-10-20T12:50:32.432Z,11.20
2022-10-20T12:51:32.414Z,10.70
2022-10-20T12:52:32.398Z,10.40
2022-10-20T12:53:32.382Z,10.80
2022-10-20T12:54:32.361Z,10.50
2022-10-20T12:55:33.638Z,11.40
2022-10-20T12:56:32.330Z,10.90
2022-10-20T12:57:32.314Z,10.30
2022-10-20T12:58:32.298Z,11.00
2022-10-20T12:59:32.275Z,10.40
2022-10-20T13:00:32.294Z,11.00
2022-10-20T13:01:32.243Z,11.30
2022-10-20T13:02:32.222Z,11.70
2022-10-20T13:03:32.210Z,11.60
2022-10-20T13:04:32.203Z,11.10
2022-10-20T13:05:32.188Z,11.50
2022-10-20T13:06:32.158Z,11.60
2022-10-20T13:07:32.137Z,10.80
2022-10-20T13:08:32.182Z,10.60
2022-10-20T13:09:32.098Z,11.20
2022-10-20T13:10:32.084Z,11.00
2022-10-20T13:11:32.066Z,10.90
2022-10-20T13:12:32.048Z,10.90
2022-10-20T13:14:32.014Z,11.80